RJCC/CTS METAR and TAF weather

Enter ICAO airport designator
Station Type Date Time Source
RJCC METAR 2019/06/26 20:00 UTC NOAA

RJCC 262000Z 14007KT 9999 FEW015 BKN/// 15/14 Q1006


Station Type Date Time Source
RJCC Decoded METAR 2019/06/26 20:00 UTC NOAA

Chitose Ab, Japan (RJCC) 42-48N 141-40E 30M
Jun 26, 2019 - 04:00 PM EDT / 2019.06.26 2000 UTC
Wind: from the SE (140 degrees) at 8 MPH (7 KT):0
Visibility: greater than 7 mile(s):0
Sky conditions: mostly cloudy
Temperature: 59 F (15 C)
Dew Point: 57 F (14 C)
Relative Humidity: 93%
Pressure (altimeter): 29.71 in. Hg (1006 hPa)
ob: RJCC 262000Z 14007KT 9999 FEW015 BKN/// 15/14 Q1006
cycle: 20

Station Type Date Time Source
RJCC TAF 2019/06/26 18:29 UTC NOAA

TAF RJCC 261705Z 2618/2800 16006KT 9999 FEW006 BKN015
TEMPO 2618/2621 3000 BR FEW003 BKN006
BECMG 2709/2712 35010KT
TEMPO 2709/2715 FEW004 BKN006
BECMG 2715/2718 17007KT
TEMPO 2715/2721 3000 BR FEW002 BKN004

Example: see airport list